Airfield :







YOU CAN JOIN US ON...

 
LOGIN :

Register | Disclaimer

   EN    FR    IT 

 









Legend :    VFR   Marginal VFR   IFR   Intensive IFR   Very Intensive IFR
Visi :
Ceiling :
>= 8 km
>= 3000ft
5 to 8 km
1000 to 3000 ft
1500m to 5 km
500 to 1000 ft
800 to 1500m
200 to 500 ft
< 800m
< 200 ft
Symbols :   Thunderstorms  Fog  Heavy snow  Heavy precipitations  Wind > 20 kt






- Airport Elevation : 74 ft
- IATA code : STX


TISX - Henri E Rohlsen

CURRENT METAR :
  • 241953Z 10008KT 10SM SCT022 29/23 A2991

EXPIRED METARs :
  • 241853Z 10007KT 10SM SCT023 /23 A2992
  • 241753Z 13007KT 10SM FEW023 30/23 A2994

TAF TISX
Valid from the 24 at 18:00 until the 25 at 18:00 UTC


241720Z 2418/2518 12010KT P6SM FEW025 SCT050
FM242200 VRB04KT P6SM FEW030 FEW050
FM251400 09010KT P6SM FEW030 FEW050
TJZS FIR / North America



MET'MAP, your aeronautical weather chart ! - Copyright ORBIFLY December 2007 - Disclaimer

ORBIFLY MET'MAP TEAM :

Programming & Development : Alexandra Zaïnal
Concept & original design : Baudouin d'Aumeries
Assistance for programming : Marc-Olivier Méhu
Technical & hardware support : Manuel Goepfert

Contact : metmap@orbifly.com




SOURCES & CREDITS :

   NOAA